sensor_id;sensor_type;location;lat;lon;timestamp;temperature;humidity
54614;DHT22;40514;52.758;6.360;2022-10-26T00:00:39;11.20;99.90
54614;DHT22;40514;52.758;6.360;2022-10-26T00:03:05;11.20;99.90
54614;DHT22;40514;52.758;6.360;2022-10-26T00:05:33;11.20;99.90
54614;DHT22;40514;52.758;6.360;2022-10-26T00:07:59;11.20;99.90
54614;DHT22;40514;52.758;6.360;2022-10-26T00:10:25;11.10;99.90
54614;DHT22;40514;52.758;6.360;2022-10-26T00:12:50;11.10;99.90
54614;DHT22;40514;52.758;6.360;2022-10-26T00:15:17;11.10;99.90
54614;DHT22;40514;52.758;6.360;2022-10-26T00:17:42;11.10;99.90
54614;DHT22;40514;52.758;6.360;2022-10-26T00:20:08;11.00;99.90
54614;DHT22;40514;52.758;6.360;2022-10-26T00:22:33;11.00;99.90
54614;DHT22;40514;52.758;6.360;2022-10-26T00:24:59;11.00;99.90
54614;DHT22;40514;52.758;6.360;2022-10-26T00:27:24;11.00;99.90
54614;DHT22;40514;52.758;6.360;2022-10-26T00:29:50;10.90;99.90
54614;DHT22;40514;52.758;6.360;2022-10-26T00:32:15;10.90;99.90
54614;DHT22;40514;52.758;6.360;2022-10-26T00:34:41;10.90;99.90
54614;DHT22;40514;52.758;6.360;2022-10-26T00:37:06;10.90;99.90
54614;DHT22;40514;52.758;6.360;2022-10-26T00:39:32;10.90;99.90
54614;DHT22;40514;52.758;6.360;2022-10-26T00:41:57;10.90;99.90
54614;DHT22;40514;52.758;6.360;2022-10-26T00:47:08;10.90;99.90
54614;DHT22;40514;52.758;6.360;2022-10-26T00:49:34;10.80;99.90
54614;DHT22;40514;52.758;6.360;2022-10-26T00:51:59;10.80;99.90
54614;DHT22;40514;52.758;6.360;2022-10-26T00:54:25;10.80;99.90
54614;DHT22;40514;52.758;6.360;2022-10-26T00:56:51;10.80;99.90
54614;DHT22;40514;52.758;6.360;2022-10-26T00:59:18;10.80;99.90
54614;DHT22;40514;52.758;6.360;2022-10-26T01:01:45;10.80;99.90
54614;DHT22;40514;52.758;6.360;2022-10-26T01:04:11;10.70;99.90
54614;DHT22;40514;52.758;6.360;2022-10-26T01:06:37;10.70;99.90
54614;DHT22;40514;52.758;6.360;2022-10-26T01:09:03;10.70;99.90
54614;DHT22;40514;52.758;6.360;2022-10-26T01:11:29;10.70;99.90
54614;DHT22;40514;52.758;6.360;2022-10-26T01:13:55;10.60;99.90
54614;DHT22;40514;52.758;6.360;2022-10-26T01:16:41;10.60;99.90
54614;DHT22;40514;52.758;6.360;2022-10-26T01:21:48;10.60;99.90
54614;DHT22;40514;52.758;6.360;2022-10-26T01:26:51;10.60;99.90
54614;DHT22;40514;52.758;6.360;2022-10-26T01:32:03;10.50;99.90
54614;DHT22;40514;52.758;6.360;2022-10-26T01:34:35;10.50;99.90
54614;DHT22;40514;52.758;6.360;2022-10-26T01:37:07;10.50;99.90
54614;DHT22;40514;52.758;6.360;2022-10-26T01:39:36;10.50;99.90
54614;DHT22;40514;52.758;6.360;2022-10-26T01:42:03;10.50;99.90
54614;DHT22;40514;52.758;6.360;2022-10-26T01:44:31;10.80;99.90
54614;DHT22;40514;52.758;6.360;2022-10-26T01:46:58;10.40;99.90
54614;DHT22;40514;52.758;6.360;2022-10-26T01:49:28;10.50;99.90
54614;DHT22;40514;52.758;6.360;2022-10-26T01:51:55;10.50;99.90
54614;DHT22;40514;52.758;6.360;2022-10-26T01:54:21;10.50;99.90
54614;DHT22;40514;52.758;6.360;2022-10-26T01:56:50;10.60;99.90
54614;DHT22;40514;52.758;6.360;2022-10-26T01:59:21;10.60;99.90
54614;DHT22;40514;52.758;6.360;2022-10-26T02:07:24;10.50;99.90
54614;DHT22;40514;52.758;6.360;2022-10-26T02:14:48;10.50;99.90
54614;DHT22;40514;52.758;6.360;2022-10-26T02:17:27;10.60;99.90
54614;DHT22;40514;52.758;6.360;2022-10-26T02:19:58;10.60;99.90
54614;DHT22;40514;52.758;6.360;2022-10-26T02:22:29;10.60;99.90
54614;DHT22;40514;52.758;6.360;2022-10-26T02:24:55;10.60;99.90
54614;DHT22;40514;52.758;6.360;2022-10-26T02:27:27;10.60;99.90
54614;DHT22;40514;52.758;6.360;2022-10-26T02:29:55;10.60;99.90
54614;DHT22;40514;52.758;6.360;2022-10-26T02:32:22;10.60;99.90
54614;DHT22;40514;52.758;6.360;2022-10-26T02:34:49;10.50;99.90
54614;DHT22;40514;52.758;6.360;2022-10-26T02:37:16;10.50;99.90
54614;DHT22;40514;52.758;6.360;2022-10-26T02:39:43;10.50;99.90
54614;DHT22;40514;52.758;6.360;2022-10-26T02:42:11;10.50;99.90
54614;DHT22;40514;52.758;6.360;2022-10-26T02:44:40;10.60;99.90
54614;DHT22;40514;52.758;6.360;2022-10-26T02:47:07;10.60;99.90
54614;DHT22;40514;52.758;6.360;2022-10-26T02:49:33;10.60;99.90
54614;DHT22;40514;52.758;6.360;2022-10-26T02:52:03;10.60;99.90
54614;DHT22;40514;52.758;6.360;2022-10-26T02:59:21;10.70;99.90
54614;DHT22;40514;52.758;6.360;2022-10-26T03:01:49;10.70;99.90
54614;DHT22;40514;52.758;6.360;2022-10-26T03:04:15;10.70;99.90
54614;DHT22;40514;52.758;6.360;2022-10-26T03:06:40;10.70;99.90
54614;DHT22;40514;52.758;6.360;2022-10-26T03:09:06;10.70;99.90
54614;DHT22;40514;52.758;6.360;2022-10-26T03:11:31;10.70;99.90
54614;DHT22;40514;52.758;6.360;2022-10-26T03:13:57;10.70;99.90
54614;DHT22;40514;52.758;6.360;2022-10-26T03:16:22;10.70;99.90
54614;DHT22;40514;52.758;6.360;2022-10-26T03:18:47;10.70;99.90
54614;DHT22;40514;52.758;6.360;2022-10-26T03:21:13;10.70;99.90
54614;DHT22;40514;52.758;6.360;2022-10-26T03:23:38;10.70;99.90
54614;DHT22;40514;52.758;6.360;2022-10-26T03:26:04;10.70;99.90
54614;DHT22;40514;52.758;6.360;2022-10-26T03:28:29;10.70;99.90
54614;DHT22;40514;52.758;6.360;2022-10-26T03:30:55;10.60;99.90
54614;DHT22;40514;52.758;6.360;2022-10-26T03:33:20;10.60;99.90
54614;DHT22;40514;52.758;6.360;2022-10-26T03:35:46;10.60;99.90
54614;DHT22;40514;52.758;6.360;2022-10-26T03:38:18;10.60;99.90
54614;DHT22;40514;52.758;6.360;2022-10-26T03:40:43;10.60;99.90
54614;DHT22;40514;52.758;6.360;2022-10-26T03:43:08;10.60;99.90
54614;DHT22;40514;52.758;6.360;2022-10-26T03:45:34;10.60;99.90
54614;DHT22;40514;52.758;6.360;2022-10-26T03:47:59;10.60;99.90
54614;DHT22;40514;52.758;6.360;2022-10-26T03:50:25;10.60;99.90
54614;DHT22;40514;52.758;6.360;2022-10-26T03:52:50;10.60;99.90
54614;DHT22;40514;52.758;6.360;2022-10-26T03:55:16;10.50;99.90
54614;DHT22;40514;52.758;6.360;2022-10-26T03:57:42;10.50;99.90
54614;DHT22;40514;52.758;6.360;2022-10-26T04:00:08;10.50;99.90
54614;DHT22;40514;52.758;6.360;2022-10-26T04:02:34;10.50;99.90
54614;DHT22;40514;52.758;6.360;2022-10-26T04:05:00;10.50;99.90
54614;DHT22;40514;52.758;6.360;2022-10-26T04:07:25;10.40;99.90
54614;DHT22;40514;52.758;6.360;2022-10-26T04:09:51;10.40;99.90
54614;DHT22;40514;52.758;6.360;2022-10-26T04:12:16;10.40;99.90
54614;DHT22;40514;52.758;6.360;2022-10-26T04:14:41;10.40;99.90
54614;DHT22;40514;52.758;6.360;2022-10-26T04:17:07;10.40;99.90
54614;DHT22;40514;52.758;6.360;2022-10-26T04:19:32;10.40;99.90
54614;DHT22;40514;52.758;6.360;2022-10-26T04:21:58;10.40;99.90
54614;DHT22;40514;52.758;6.360;2022-10-26T04:24:23;10.40;99.90
54614;DHT22;40514;52.758;6.360;2022-10-26T04:26:49;10.40;99.90
54614;DHT22;40514;52.758;6.360;2022-10-26T04:29:14;10.50;99.90
54614;DHT22;40514;52.758;6.360;2022-10-26T04:31:40;10.50;99.90
54614;DHT22;40514;52.758;6.360;2022-10-26T04:34:06;10.50;99.90
54614;DHT22;40514;52.758;6.360;2022-10-26T04:36:32;10.50;99.90
54614;DHT22;40514;52.758;6.360;2022-10-26T04:38:58;10.50;99.90
54614;DHT22;40514;52.758;6.360;2022-10-26T04:41:24;10.60;99.90
54614;DHT22;40514;52.758;6.360;2022-10-26T04:43:49;10.60;99.90
54614;DHT22;40514;52.758;6.360;2022-10-26T04:46:15;10.60;99.90
54614;DHT22;40514;52.758;6.360;2022-10-26T04:48:40;10.60;99.90
54614;DHT22;40514;52.758;6.360;2022-10-26T04:51:06;10.70;99.90
54614;DHT22;40514;52.758;6.360;2022-10-26T04:53:31;10.70;99.90
54614;DHT22;40514;52.758;6.360;2022-10-26T04:55:58;10.70;99.90
54614;DHT22;40514;52.758;6.360;2022-10-26T04:58:23;10.70;99.90
54614;DHT22;40514;52.758;6.360;2022-10-26T05:00:49;10.70;99.90
54614;DHT22;40514;52.758;6.360;2022-10-26T05:03:14;10.70;99.90
54614;DHT22;40514;52.758;6.360;2022-10-26T05:05:40;10.70;99.90
54614;DHT22;40514;52.758;6.360;2022-10-26T05:08:05;10.80;99.90
54614;DHT22;40514;52.758;6.360;2022-10-26T05:10:31;10.80;99.90
54614;DHT22;40514;52.758;6.360;2022-10-26T05:12:57;10.80;99.90
54614;DHT22;40514;52.758;6.360;2022-10-26T05:15:23;10.80;99.90
54614;DHT22;40514;52.758;6.360;2022-10-26T05:18:02;10.80;99.90
54614;DHT22;40514;52.758;6.360;2022-10-26T05:20:28;10.80;99.90
54614;DHT22;40514;52.758;6.360;2022-10-26T05:22:56;10.90;99.90
54614;DHT22;40514;52.758;6.360;2022-10-26T05:25:21;10.80;99.90
54614;DHT22;40514;52.758;6.360;2022-10-26T05:27:47;10.80;99.90
54614;DHT22;40514;52.758;6.360;2022-10-26T05:30:12;10.80;99.90
54614;DHT22;40514;52.758;6.360;2022-10-26T05:32:38;10.80;99.90
54614;DHT22;40514;52.758;6.360;2022-10-26T05:35:03;10.90;99.90
54614;DHT22;40514;52.758;6.360;2022-10-26T05:37:29;10.90;99.90
54614;DHT22;40514;52.758;6.360;2022-10-26T05:39:54;10.80;99.90
54614;DHT22;40514;52.758;6.360;2022-10-26T05:42:20;10.80;99.90
54614;DHT22;40514;52.758;6.360;2022-10-26T05:44:45;10.80;99.90
54614;DHT22;40514;52.758;6.360;2022-10-26T05:47:11;10.90;99.90
54614;DHT22;40514;52.758;6.360;2022-10-26T05:49:36;10.80;99.90
54614;DHT22;40514;52.758;6.360;2022-10-26T05:52:02;10.90;99.90
54614;DHT22;40514;52.758;6.360;2022-10-26T05:54:27;10.90;99.90
54614;DHT22;40514;52.758;6.360;2022-10-26T05:56:53;10.80;99.90
54614;DHT22;40514;52.758;6.360;2022-10-26T05:59:19;10.80;99.90
54614;DHT22;40514;52.758;6.360;2022-10-26T06:06:39;10.80;99.90
54614;DHT22;40514;52.758;6.360;2022-10-26T06:09:08;10.90;99.90
54614;DHT22;40514;52.758;6.360;2022-10-26T06:11:34;10.80;99.90
54614;DHT22;40514;52.758;6.360;2022-10-26T06:13:59;10.90;99.90
54614;DHT22;40514;52.758;6.360;2022-10-26T06:16:49;10.90;99.90
54614;DHT22;40514;52.758;6.360;2022-10-26T06:21:55;10.90;99.90
54614;DHT22;40514;52.758;6.360;2022-10-26T06:27:02;10.90;99.90
54614;DHT22;40514;52.758;6.360;2022-10-26T06:29:43;10.90;99.90
54614;DHT22;40514;52.758;6.360;2022-10-26T06:32:10;11.00;99.90
54614;DHT22;40514;52.758;6.360;2022-10-26T06:34:36;11.00;99.90
54614;DHT22;40514;52.758;6.360;2022-10-26T06:37:03;11.00;99.90
54614;DHT22;40514;52.758;6.360;2022-10-26T06:39:30;11.00;99.90
54614;DHT22;40514;52.758;6.360;2022-10-26T06:41:56;11.10;99.90
54614;DHT22;40514;52.758;6.360;2022-10-26T06:44:22;11.10;99.90
54614;DHT22;40514;52.758;6.360;2022-10-26T06:49:34;11.10;99.90
54614;DHT22;40514;52.758;6.360;2022-10-26T06:52:02;11.20;99.90
54614;DHT22;40514;52.758;6.360;2022-10-26T06:57:20;11.20;99.90
54614;DHT22;40514;52.758;6.360;2022-10-26T07:02:30;11.30;99.90
54614;DHT22;40514;52.758;6.360;2022-10-26T07:04:55;11.40;99.90
54614;DHT22;40514;52.758;6.360;2022-10-26T07:07:21;11.40;99.90
54614;DHT22;40514;52.758;6.360;2022-10-26T07:09:47;11.40;99.90
54614;DHT22;40514;52.758;6.360;2022-10-26T07:12:13;12.40;99.90
54614;DHT22;40514;52.758;6.360;2022-10-26T07:14:38;12.60;99.90
54614;DHT22;40514;52.758;6.360;2022-10-26T07:17:04;11.60;99.90
54614;DHT22;40514;52.758;6.360;2022-10-26T07:19:29;11.60;99.90
54614;DHT22;40514;52.758;6.360;2022-10-26T07:21:55;11.60;99.90
54614;DHT22;40514;52.758;6.360;2022-10-26T07:24:21;11.60;99.90
54614;DHT22;40514;52.758;6.360;2022-10-26T07:26:47;11.70;99.90
54614;DHT22;40514;52.758;6.360;2022-10-26T07:29:13;11.70;99.90
54614;DHT22;40514;52.758;6.360;2022-10-26T07:31:40;11.80;99.90
54614;DHT22;40514;52.758;6.360;2022-10-26T07:34:06;11.80;99.90
54614;DHT22;40514;52.758;6.360;2022-10-26T07:36:31;11.90;99.90
54614;DHT22;40514;52.758;6.360;2022-10-26T07:38:57;12.00;99.90
54614;DHT22;40514;52.758;6.360;2022-10-26T07:41:22;12.10;99.90
54614;DHT22;40514;52.758;6.360;2022-10-26T07:43:48;12.20;99.90
54614;DHT22;40514;52.758;6.360;2022-10-26T07:46:15;12.30;99.90
54614;DHT22;40514;52.758;6.360;2022-10-26T07:48:40;12.40;99.90
54614;DHT22;40514;52.758;6.360;2022-10-26T07:51:06;12.50;99.90
54614;DHT22;40514;52.758;6.360;2022-10-26T07:53:31;12.60;99.90
54614;DHT22;40514;52.758;6.360;2022-10-26T07:55:57;12.70;99.90
54614;DHT22;40514;52.758;6.360;2022-10-26T07:58:23;12.80;99.90
54614;DHT22;40514;52.758;6.360;2022-10-26T08:00:50;13.00;99.90
54614;DHT22;40514;52.758;6.360;2022-10-26T08:03:16;13.00;99.90
54614;DHT22;40514;52.758;6.360;2022-10-26T08:05:42;13.00;99.90
54614;DHT22;40514;52.758;6.360;2022-10-26T08:08:09;13.00;99.90
54614;DHT22;40514;52.758;6.360;2022-10-26T08:10:35;13.10;99.90
54614;DHT22;40514;52.758;6.360;2022-10-26T08:13:00;13.10;99.90
54614;DHT22;40514;52.758;6.360;2022-10-26T08:15:26;13.10;99.90
54614;DHT22;40514;52.758;6.360;2022-10-26T08:17:51;13.10;99.90
54614;DHT22;40514;52.758;6.360;2022-10-26T08:20:16;13.20;99.90
54614;DHT22;40514;52.758;6.360;2022-10-26T08:22:42;13.10;99.90
54614;DHT22;40514;52.758;6.360;2022-10-26T08:25:07;13.00;99.90
54614;DHT22;40514;52.758;6.360;2022-10-26T08:27:33;13.00;99.90
54614;DHT22;40514;52.758;6.360;2022-10-26T08:29:58;13.00;99.90
54614;DHT22;40514;52.758;6.360;2022-10-26T08:32:24;13.10;99.90
54614;DHT22;40514;52.758;6.360;2022-10-26T08:34:49;13.20;99.90
54614;DHT22;40514;52.758;6.360;2022-10-26T08:37:15;13.40;99.90
54614;DHT22;40514;52.758;6.360;2022-10-26T08:39:40;13.60;99.90
54614;DHT22;40514;52.758;6.360;2022-10-26T08:42:09;14.20;99.90
54614;DHT22;40514;52.758;6.360;2022-10-26T08:44:38;14.60;99.90
54614;DHT22;40514;52.758;6.360;2022-10-26T08:47:08;15.20;99.90
54614;DHT22;40514;52.758;6.360;2022-10-26T08:49:38;15.50;99.90
54614;DHT22;40514;52.758;6.360;2022-10-26T08:52:05;15.80;99.90
54614;DHT22;40514;52.758;6.360;2022-10-26T08:54:38;16.10;99.90
54614;DHT22;40514;52.758;6.360;2022-10-26T08:57:15;16.60;99.90
54614;DHT22;40514;52.758;6.360;2022-10-26T08:59:45;17.20;99.90
54614;DHT22;40514;52.758;6.360;2022-10-26T09:02:12;17.60;99.90
54614;DHT22;40514;52.758;6.360;2022-10-26T09:04:38;18.10;99.90
54614;DHT22;40514;52.758;6.360;2022-10-26T09:12:19;20.40;99.90
54614;DHT22;40514;52.758;6.360;2022-10-26T09:22:25;21.90;99.90
54614;DHT22;40514;52.758;6.360;2022-10-26T09:24:52;22.00;99.90
54614;DHT22;40514;52.758;6.360;2022-10-26T09:27:20;22.20;99.90
54614;DHT22;40514;52.758;6.360;2022-10-26T09:29:48;22.60;99.90
54614;DHT22;40514;52.758;6.360;2022-10-26T09:32:24;22.40;99.90
54614;DHT22;40514;52.758;6.360;2022-10-26T09:34:52;21.70;99.90
54614;DHT22;40514;52.758;6.360;2022-10-26T09:37:23;21.10;99.90
54614;DHT22;40514;52.758;6.360;2022-10-26T09:42:20;19.90;99.90
54614;DHT22;40514;52.758;6.360;2022-10-26T09:44:49;19.50;99.90
54614;DHT22;40514;52.758;6.360;2022-10-26T09:49:54;20.00;99.90
54614;DHT22;40514;52.758;6.360;2022-10-26T09:52:20;20.30;99.90
54614;DHT22;40514;52.758;6.360;2022-10-26T09:54:46;20.20;99.90
54614;DHT22;40514;52.758;6.360;2022-10-26T09:57:13;20.60;99.90
54614;DHT22;40514;52.758;6.360;2022-10-26T09:59:39;21.50;99.90
54614;DHT22;40514;52.758;6.360;2022-10-26T10:02:30;22.60;99.90
54614;DHT22;40514;52.758;6.360;2022-10-26T10:04:56;22.80;99.90
54614;DHT22;40514;52.758;6.360;2022-10-26T10:07:21;22.50;99.90
54614;DHT22;40514;52.758;6.360;2022-10-26T10:10:04;22.00;99.90
54614;DHT22;40514;52.758;6.360;2022-10-26T10:12:30;22.00;99.90
54614;DHT22;40514;52.758;6.360;2022-10-26T10:14:56;22.30;99.90
54614;DHT22;40514;52.758;6.360;2022-10-26T10:17:22;23.00;99.90
54614;DHT22;40514;52.758;6.360;2022-10-26T10:19:48;24.00;99.90
54614;DHT22;40514;52.758;6.360;2022-10-26T10:24:40;25.40;97.60
54614;DHT22;40514;52.758;6.360;2022-10-26T10:29:40;26.40;92.60
54614;DHT22;40514;52.758;6.360;2022-10-26T10:32:09;26.60;96.00
54614;DHT22;40514;52.758;6.360;2022-10-26T10:34:38;26.90;92.80
54614;DHT22;40514;52.758;6.360;2022-10-26T10:37:03;27.10;92.70
54614;DHT22;40514;52.758;6.360;2022-10-26T10:41:55;27.50;93.60
54614;DHT22;40514;52.758;6.360;2022-10-26T10:46:46;27.00;93.60
54614;DHT22;40514;52.758;6.360;2022-10-26T10:49:16;26.50;92.40
54614;DHT22;40514;52.758;6.360;2022-10-26T10:51:43;26.00;96.30
54614;DHT22;40514;52.758;6.360;2022-10-26T10:56:53;25.20;94.30
54614;DHT22;40514;52.758;6.360;2022-10-26T10:59:24;24.60;97.00
54614;DHT22;40514;52.758;6.360;2022-10-26T11:02:05;24.00;98.00
54614;DHT22;40514;52.758;6.360;2022-10-26T11:04:57;23.40;99.90
54614;DHT22;40514;52.758;6.360;2022-10-26T11:07:25;23.20;99.90
54614;DHT22;40514;52.758;6.360;2022-10-26T11:09:52;23.60;99.90
54614;DHT22;40514;52.758;6.360;2022-10-26T11:12:28;23.90;97.50
54614;DHT22;40514;52.758;6.360;2022-10-26T11:15:05;24.20;98.50
54614;DHT22;40514;52.758;6.360;2022-10-26T11:17:35;24.50;96.70
54614;DHT22;40514;52.758;6.360;2022-10-26T11:20:03;24.80;97.90
54614;DHT22;40514;52.758;6.360;2022-10-26T11:22:37;25.20;99.20
54614;DHT22;40514;52.758;6.360;2022-10-26T11:25:10;25.60;93.70
54614;DHT22;40514;52.758;6.360;2022-10-26T11:27:53;26.00;92.10
54614;DHT22;40514;52.758;6.360;2022-10-26T11:30:22;26.50;97.80
54614;DHT22;40514;52.758;6.360;2022-10-26T11:33:05;26.80;98.50
54614;DHT22;40514;52.758;6.360;2022-10-26T11:35:43;26.80;89.30
54614;DHT22;40514;52.758;6.360;2022-10-26T11:43:34;25.30;92.80
54614;DHT22;40514;52.758;6.360;2022-10-26T11:48:59;24.70;95.50
54614;DHT22;40514;52.758;6.360;2022-10-26T11:51:40;24.70;93.20
54614;DHT22;40514;52.758;6.360;2022-10-26T11:56:56;25.40;92.20
54614;DHT22;40514;52.758;6.360;2022-10-26T11:59:25;25.40;93.10
54614;DHT22;40514;52.758;6.360;2022-10-26T12:01:57;25.30;92.60
54614;DHT22;40514;52.758;6.360;2022-10-26T12:04:28;25.00;92.70
54614;DHT22;40514;52.758;6.360;2022-10-26T12:06:57;24.90;93.60
54614;DHT22;40514;52.758;6.360;2022-10-26T12:09:27;25.30;93.90
54614;DHT22;40514;52.758;6.360;2022-10-26T12:12:16;25.60;93.20
54614;DHT22;40514;52.758;6.360;2022-10-26T12:15:02;25.30;91.50
54614;DHT22;40514;52.758;6.360;2022-10-26T12:17:53;24.70;92.90
54614;DHT22;40514;52.758;6.360;2022-10-26T12:23:08;23.70;96.20
54614;DHT22;40514;52.758;6.360;2022-10-26T12:25:34;23.20;98.20
54614;DHT22;40514;52.758;6.360;2022-10-26T12:28:00;22.90;98.40
54614;DHT22;40514;52.758;6.360;2022-10-26T12:33:00;22.60;99.70
54614;DHT22;40514;52.758;6.360;2022-10-26T12:37:58;22.50;99.90
54614;DHT22;40514;52.758;6.360;2022-10-26T12:42:55;22.40;99.90
54614;DHT22;40514;52.758;6.360;2022-10-26T12:45:22;22.30;99.90
54614;DHT22;40514;52.758;6.360;2022-10-26T12:53:04;21.70;99.90
54614;DHT22;40514;52.758;6.360;2022-10-26T12:58:45;21.20;99.90
54614;DHT22;40514;52.758;6.360;2022-10-26T13:01:33;21.10;99.90
54614;DHT22;40514;52.758;6.360;2022-10-26T13:04:36;21.00;99.90
54614;DHT22;40514;52.758;6.360;2022-10-26T13:09:44;20.90;99.90
54614;DHT22;40514;52.758;6.360;2022-10-26T13:12:10;20.90;99.90
54614;DHT22;40514;52.758;6.360;2022-10-26T13:14:52;20.90;99.90
54614;DHT22;40514;52.758;6.360;2022-10-26T13:17:25;20.80;99.90
54614;DHT22;40514;52.758;6.360;2022-10-26T13:19:56;20.80;99.90
54614;DHT22;40514;52.758;6.360;2022-10-26T13:22:22;20.90;99.90
54614;DHT22;40514;52.758;6.360;2022-10-26T13:24:59;20.80;99.90
54614;DHT22;40514;52.758;6.360;2022-10-26T13:30:16;20.50;99.90
54614;DHT22;40514;52.758;6.360;2022-10-26T13:32:51;20.40;99.90
54614;DHT22;40514;52.758;6.360;2022-10-26T13:35:19;20.30;99.90
54614;DHT22;40514;52.758;6.360;2022-10-26T13:37:47;20.20;99.90
54614;DHT22;40514;52.758;6.360;2022-10-26T13:40:20;20.00;99.90
54614;DHT22;40514;52.758;6.360;2022-10-26T13:43:02;19.90;99.90
54614;DHT22;40514;52.758;6.360;2022-10-26T13:45:32;19.90;99.90
54614;DHT22;40514;52.758;6.360;2022-10-26T13:48:15;19.80;99.90
54614;DHT22;40514;52.758;6.360;2022-10-26T13:50:54;19.80;99.90
54614;DHT22;40514;52.758;6.360;2022-10-26T13:56:02;19.80;99.90
54614;DHT22;40514;52.758;6.360;2022-10-26T13:58:33;19.80;99.90
54614;DHT22;40514;52.758;6.360;2022-10-26T14:01:18;19.70;99.90
54614;DHT22;40514;52.758;6.360;2022-10-26T14:03:46;19.80;99.90
54614;DHT22;40514;52.758;6.360;2022-10-26T14:08:50;19.70;99.90
54614;DHT22;40514;52.758;6.360;2022-10-26T14:11:22;19.60;99.90
54614;DHT22;40514;52.758;6.360;2022-10-26T14:13:52;19.50;99.90
54614;DHT22;40514;52.758;6.360;2022-10-26T14:16:19;19.50;99.90
54614;DHT22;40514;52.758;6.360;2022-10-26T14:18:47;19.40;99.90
54614;DHT22;40514;52.758;6.360;2022-10-26T14:21:15;19.40;99.90
54614;DHT22;40514;52.758;6.360;2022-10-26T14:26:41;19.40;99.90
54614;DHT22;40514;52.758;6.360;2022-10-26T14:29:17;19.30;99.90
54614;DHT22;40514;52.758;6.360;2022-10-26T14:31:43;19.30;99.90
54614;DHT22;40514;52.758;6.360;2022-10-26T14:34:10;19.20;99.90
54614;DHT22;40514;52.758;6.360;2022-10-26T14:41:45;19.10;99.90
54614;DHT22;40514;52.758;6.360;2022-10-26T14:44:23;19.10;99.90
54614;DHT22;40514;52.758;6.360;2022-10-26T14:46:49;19.10;99.90
54614;DHT22;40514;52.758;6.360;2022-10-26T14:49:25;19.10;99.90
54614;DHT22;40514;52.758;6.360;2022-10-26T14:51:58;19.20;99.90
54614;DHT22;40514;52.758;6.360;2022-10-26T14:54:26;19.00;99.90
54614;DHT22;40514;52.758;6.360;2022-10-26T14:56:53;19.00;99.90
54614;DHT22;40514;52.758;6.360;2022-10-26T14:59:29;18.90;99.90
54614;DHT22;40514;52.758;6.360;2022-10-26T15:02:04;18.90;99.90
54614;DHT22;40514;52.758;6.360;2022-10-26T15:04:39;18.90;99.90
54614;DHT22;40514;52.758;6.360;2022-10-26T15:09:38;18.90;99.90
54614;DHT22;40514;52.758;6.360;2022-10-26T15:12:04;18.80;99.90
54614;DHT22;40514;52.758;6.360;2022-10-26T15:14:30;18.80;99.90
54614;DHT22;40514;52.758;6.360;2022-10-26T15:16:56;18.70;99.90
54614;DHT22;40514;52.758;6.360;2022-10-26T15:19:22;18.70;99.90
54614;DHT22;40514;52.758;6.360;2022-10-26T15:21:48;18.70;99.90
54614;DHT22;40514;52.758;6.360;2022-10-26T15:24:31;18.60;99.90
54614;DHT22;40514;52.758;6.360;2022-10-26T15:26:57;18.60;99.90
54614;DHT22;40514;52.758;6.360;2022-10-26T15:29:36;18.50;99.90
54614;DHT22;40514;52.758;6.360;2022-10-26T15:32:03;18.50;99.90
54614;DHT22;40514;52.758;6.360;2022-10-26T15:34:29;18.40;99.90
54614;DHT22;40514;52.758;6.360;2022-10-26T15:36:54;18.40;99.90
54614;DHT22;40514;52.758;6.360;2022-10-26T15:39:20;18.30;99.90
54614;DHT22;40514;52.758;6.360;2022-10-26T15:41:46;18.40;99.90
54614;DHT22;40514;52.758;6.360;2022-10-26T15:44:13;18.30;99.90
54614;DHT22;40514;52.758;6.360;2022-10-26T15:46:40;18.20;99.90
54614;DHT22;40514;52.758;6.360;2022-10-26T15:49:06;18.20;99.90
54614;DHT22;40514;52.758;6.360;2022-10-26T15:51:33;18.10;99.90
54614;DHT22;40514;52.758;6.360;2022-10-26T15:54:00;18.10;99.90
54614;DHT22;40514;52.758;6.360;2022-10-26T15:56:26;18.00;99.90
54614;DHT22;40514;52.758;6.360;2022-10-26T15:58:52;17.90;99.90
54614;DHT22;40514;52.758;6.360;2022-10-26T16:01:18;17.80;99.90
54614;DHT22;40514;52.758;6.360;2022-10-26T16:03:44;17.80;99.90
54614;DHT22;40514;52.758;6.360;2022-10-26T16:08:48;17.70;99.90
54614;DHT22;40514;52.758;6.360;2022-10-26T16:11:14;17.70;99.90
54614;DHT22;40514;52.758;6.360;2022-10-26T16:13:40;17.70;99.90
54614;DHT22;40514;52.758;6.360;2022-10-26T16:16:12;17.70;99.90
54614;DHT22;40514;52.758;6.360;2022-10-26T16:18:38;17.70;99.90
54614;DHT22;40514;52.758;6.360;2022-10-26T16:21:04;17.70;99.90
54614;DHT22;40514;52.758;6.360;2022-10-26T16:23:30;17.70;99.90
54614;DHT22;40514;52.758;6.360;2022-10-26T16:25:56;17.70;99.90
54614;DHT22;40514;52.758;6.360;2022-10-26T16:28:21;17.70;99.90
54614;DHT22;40514;52.758;6.360;2022-10-26T16:30:47;17.80;99.90
54614;DHT22;40514;52.758;6.360;2022-10-26T16:33:13;17.80;99.90
54614;DHT22;40514;52.758;6.360;2022-10-26T16:35:38;17.80;99.90
54614;DHT22;40514;52.758;6.360;2022-10-26T16:38:04;17.80;99.90
54614;DHT22;40514;52.758;6.360;2022-10-26T16:40:30;17.80;99.90
54614;DHT22;40514;52.758;6.360;2022-10-26T16:42:55;17.70;99.90
54614;DHT22;40514;52.758;6.360;2022-10-26T16:45:21;17.70;99.90
54614;DHT22;40514;52.758;6.360;2022-10-26T16:47:46;17.70;99.90
54614;DHT22;40514;52.758;6.360;2022-10-26T16:50:12;17.70;99.90
54614;DHT22;40514;52.758;6.360;2022-10-26T16:52:39;17.70;99.90
54614;DHT22;40514;52.758;6.360;2022-10-26T16:55:06;17.60;99.90
54614;DHT22;40514;52.758;6.360;2022-10-26T16:57:34;17.60;99.90
54614;DHT22;40514;52.758;6.360;2022-10-26T16:59:59;17.60;99.90
54614;DHT22;40514;52.758;6.360;2022-10-26T17:02:25;17.60;99.90
54614;DHT22;40514;52.758;6.360;2022-10-26T17:04:51;17.60;99.90
54614;DHT22;40514;52.758;6.360;2022-10-26T17:07:16;17.50;99.90
54614;DHT22;40514;52.758;6.360;2022-10-26T17:09:42;17.50;99.90
54614;DHT22;40514;52.758;6.360;2022-10-26T17:12:07;17.50;99.90
54614;DHT22;40514;52.758;6.360;2022-10-26T17:14:35;17.50;99.90
54614;DHT22;40514;52.758;6.360;2022-10-26T17:17:02;17.30;99.90
54614;DHT22;40514;52.758;6.360;2022-10-26T17:19:27;17.30;99.90
54614;DHT22;40514;52.758;6.360;2022-10-26T17:21:53;17.20;99.90
54614;DHT22;40514;52.758;6.360;2022-10-26T17:24:18;17.20;99.90
54614;DHT22;40514;52.758;6.360;2022-10-26T17:26:44;17.10;99.90
54614;DHT22;40514;52.758;6.360;2022-10-26T17:29:12;17.00;99.90
54614;DHT22;40514;52.758;6.360;2022-10-26T17:31:38;16.90;99.90
54614;DHT22;40514;52.758;6.360;2022-10-26T17:34:03;16.80;99.90
54614;DHT22;40514;52.758;6.360;2022-10-26T17:36:29;16.80;99.90
54614;DHT22;40514;52.758;6.360;2022-10-26T17:38:56;16.70;99.90
54614;DHT22;40514;52.758;6.360;2022-10-26T17:41:22;16.70;99.90
54614;DHT22;40514;52.758;6.360;2022-10-26T17:43:48;16.60;99.90